createdAt,value
2019-02-07T00:01:20.004Z,10.33
2019-02-07T00:03:49.852Z,11.07
2019-02-07T00:06:19.721Z,10.67
2019-02-07T00:08:49.559Z,10.73
2019-02-07T00:11:19.526Z,9.00
2019-02-07T00:13:49.336Z,9.90
2019-02-07T00:16:19.168Z,10.70
2019-02-07T00:18:48.876Z,10.37
2019-02-07T00:21:18.730Z,9.10
2019-02-07T00:23:48.638Z,11.17
2019-02-07T00:30:35.966Z,9.47
2019-02-07T00:33:05.910Z,9.70
2019-02-07T00:35:35.682Z,9.47
2019-02-07T00:38:05.468Z,8.33
2019-02-07T00:44:16.628Z,9.70
2019-02-07T00:46:46.518Z,10.00
2019-02-07T00:49:16.300Z,11.70
2019-02-07T00:51:48.181Z,10.83
2019-02-07T00:54:18.270Z,11.87
2019-02-07T00:56:48.072Z,10.67
2019-02-07T00:59:17.851Z,10.83
2019-02-07T01:01:47.772Z,9.23
2019-02-07T01:04:17.637Z,10.07
2019-02-07T01:06:47.411Z,11.00
2019-02-07T01:13:41.100Z,10.20
2019-02-07T01:16:10.880Z,11.70
2019-02-07T01:18:40.749Z,10.00
2019-02-07T01:21:10.506Z,10.10
2019-02-07T01:23:40.409Z,9.80
2019-02-07T01:26:10.255Z,10.77
2019-02-07T01:28:40.151Z,10.77
2019-02-07T01:31:09.981Z,11.13
2019-02-07T01:33:39.883Z,11.27
2019-02-07T01:36:10.190Z,10.80
2019-02-07T01:38:39.958Z,11.87
2019-02-07T01:41:09.683Z,8.80
2019-02-07T01:43:39.577Z,10.80
2019-02-07T01:46:09.474Z,10.23
2019-02-07T01:48:39.271Z,8.80
2019-02-07T01:51:09.243Z,10.33
2019-02-07T01:53:39.059Z,9.47
2019-02-07T01:56:08.907Z,9.47
2019-02-07T01:58:38.809Z,9.97
2019-02-07T02:01:08.676Z,8.57
2019-02-07T02:03:38.615Z,8.70
2019-02-07T02:06:08.561Z,9.03
2019-02-07T02:08:38.454Z,9.67
2019-02-07T02:11:08.386Z,8.00
2019-02-07T02:13:38.179Z,9.73
2019-02-07T02:16:07.913Z,9.73
2019-02-07T02:18:37.810Z,10.77
2019-02-07T02:21:07.671Z,8.43
2019-02-07T02:23:37.431Z,8.87
2019-02-07T02:26:07.623Z,9.77
2019-02-07T02:28:37.405Z,9.83
2019-02-07T02:31:08.731Z,9.67
2019-02-07T02:33:38.578Z,10.57
2019-02-07T02:36:08.401Z,10.87
2019-02-07T02:38:39.633Z,11.23
2019-02-07T02:44:42.647Z,10.27
2019-02-07T02:47:12.445Z,10.07
2019-02-07T02:49:42.261Z,10.87
2019-02-07T02:52:12.141Z,11.13
2019-02-07T02:59:05.369Z,11.07
2019-02-07T03:01:57.270Z,11.73
2019-02-07T03:04:45.608Z,11.10
2019-02-07T03:07:33.142Z,11.17
2019-02-07T03:10:24.975Z,12.37
2019-02-07T03:13:16.544Z,13.73
2019-02-07T03:16:23.568Z,12.90
2019-02-07T03:19:20.174Z,13.13
2019-02-07T03:22:00.550Z,9.90
2019-02-07T03:24:52.395Z,12.87
2019-02-07T03:27:39.683Z,12.50
2019-02-07T03:30:32.742Z,12.47
2019-02-07T03:33:36.875Z,10.10
2019-02-07T03:36:30.620Z,12.00
2019-02-07T03:39:15.819Z,12.33
2019-02-07T03:42:22.800Z,12.97
2019-02-07T03:45:10.208Z,12.57
2019-02-07T03:47:50.485Z,11.97
2019-02-07T03:50:37.709Z,14.13
2019-02-07T03:53:29.370Z,11.67
2019-02-07T03:56:30.447Z,11.93
2019-02-07T03:59:17.880Z,13.20
2019-02-07T04:02:05.190Z,11.97
2019-02-07T04:05:12.276Z,11.33
2019-02-07T04:07:54.163Z,11.73
2019-02-07T04:10:45.569Z,11.23
2019-02-07T04:13:28.513Z,12.33
2019-02-07T04:16:32.201Z,10.43
2019-02-07T04:19:23.544Z,10.63
2019-02-07T04:22:21.127Z,11.43
2019-02-07T04:25:18.873Z,10.67
2019-02-07T04:28:07.603Z,10.87
2019-02-07T04:30:56.483Z,11.67
2019-02-07T04:33:44.174Z,11.80
2019-02-07T04:36:23.492Z,10.53
2019-02-07T04:39:09.865Z,9.23
2019-02-07T04:42:01.488Z,10.67
2019-02-07T04:44:59.039Z,9.13
2019-02-07T04:48:02.852Z,8.73
2019-02-07T04:51:06.481Z,7.93
2019-02-07T04:53:53.985Z,10.30
2019-02-07T04:56:42.851Z,10.43
2019-02-07T04:59:34.393Z,9.63
2019-02-07T05:02:35.379Z,10.03
2019-02-07T05:05:24.823Z,9.93
2019-02-07T05:08:28.861Z,9.30
2019-02-07T05:18:20.532Z,9.97
2019-02-07T05:21:15.074Z,9.93
2019-02-07T05:24:02.821Z,9.90
2019-02-07T05:26:56.071Z,9.87
2019-02-07T05:29:35.532Z,10.37
2019-02-07T05:32:27.499Z,8.83
2019-02-07T05:35:16.312Z,9.70
2019-02-07T05:38:03.834Z,10.60
2019-02-07T05:40:44.418Z,10.00
2019-02-07T05:43:30.288Z,9.00
2019-02-07T05:46:28.038Z,8.73
2019-02-07T05:49:19.062Z,8.70
2019-02-07T05:52:06.515Z,7.57
2019-02-07T05:55:03.644Z,9.40
2019-02-07T05:58:01.584Z,9.17
2019-02-07T06:00:52.994Z,8.70
2019-02-07T06:03:40.206Z,7.80
2019-02-07T06:06:20.930Z,7.50
2019-02-07T06:09:21.620Z,7.23
2019-02-07T06:12:09.478Z,9.03
2019-02-07T06:15:01.318Z,6.13
2019-02-07T06:17:44.907Z,8.13
2019-02-07T06:20:31.502Z,7.43
2019-02-07T06:23:32.221Z,6.67
2019-02-07T06:26:20.191Z,7.80
2019-02-07T06:29:12.656Z,6.27
2019-02-07T06:32:01.497Z,6.27
2019-02-07T06:34:52.990Z,6.83
2019-02-07T06:37:33.352Z,6.80
2019-02-07T06:40:13.878Z,6.83
2019-02-07T06:46:32.486Z,5.90
2019-02-07T06:49:24.009Z,4.87
2019-02-07T06:52:26.215Z,5.97
2019-02-07T06:55:13.661Z,5.73
2019-02-07T06:57:58.913Z,4.87
2019-02-07T07:01:20.755Z,4.67
2019-02-07T07:04:15.635Z,4.47
2019-02-07T07:07:11.882Z,4.90
2019-02-07T07:10:19.027Z,5.43
2019-02-07T07:13:19.872Z,5.33
2019-02-07T07:16:07.439Z,6.10
2019-02-07T07:18:54.831Z,5.73
2019-02-07T07:21:42.231Z,5.23
2019-02-07T07:24:29.958Z,5.10
2019-02-07T07:27:09.911Z,5.57
2019-02-07T07:29:57.597Z,5.20
2019-02-07T07:32:45.300Z,4.90
2019-02-07T07:35:34.141Z,4.37
2019-02-07T07:38:21.615Z,3.93
2019-02-07T07:41:13.355Z,4.53
2019-02-07T07:44:02.134Z,4.00
2019-02-07T07:47:00.155Z,3.20
2019-02-07T07:49:37.536Z,2.90
2019-02-07T07:52:41.974Z,3.40
2019-02-07T08:02:16.679Z,3.40
2019-02-07T08:05:12.544Z,4.00
2019-02-07T08:07:57.945Z,2.40
2019-02-07T08:10:44.975Z,3.37
2019-02-07T08:13:32.255Z,2.77
2019-02-07T08:16:33.344Z,3.30
2019-02-07T08:19:20.954Z,3.80
2019-02-07T08:21:56.725Z,3.53
2019-02-07T08:24:49.466Z,2.70
2019-02-07T08:27:37.832Z,3.60
2019-02-07T08:30:36.192Z,3.23
2019-02-07T08:33:19.190Z,4.33
2019-02-07T08:36:17.296Z,3.17
2019-02-07T08:39:00.595Z,3.60
2019-02-07T08:42:02.011Z,3.10
2019-02-07T08:44:46.850Z,3.53
2019-02-07T08:47:29.408Z,2.90
2019-02-07T08:50:18.231Z,3.00
2019-02-07T08:53:16.039Z,3.17
2019-02-07T08:56:04.976Z,3.60
2019-02-07T08:58:45.236Z,2.73
2019-02-07T09:01:36.805Z,2.87
2019-02-07T09:04:31.374Z,2.73
2019-02-07T09:07:15.956Z,2.93
2019-02-07T09:10:16.685Z,3.10
2019-02-07T09:13:04.056Z,3.03
2019-02-07T09:15:50.191Z,3.23
2019-02-07T09:18:39.002Z,3.90
2019-02-07T09:21:30.720Z,4.13
2019-02-07T09:24:31.525Z,2.70
2019-02-07T09:27:12.819Z,2.83
2019-02-07T09:30:00.324Z,2.40
2019-02-07T09:33:00.700Z,3.77
2019-02-07T09:35:48.326Z,2.83
2019-02-07T09:38:37.128Z,2.97
2019-02-07T09:41:41.359Z,3.30
2019-02-07T09:44:32.741Z,2.70
2019-02-07T09:47:36.985Z,2.57
2019-02-07T09:50:24.329Z,2.93
2019-02-07T09:53:11.893Z,2.57
2019-02-07T09:56:01.521Z,2.47
2019-02-07T09:58:48.256Z,2.50
2019-02-07T10:01:37.207Z,2.70
2019-02-07T10:04:35.080Z,2.83
2019-02-07T10:07:21.821Z,2.63
2019-02-07T10:10:13.685Z,2.83
2019-02-07T10:13:00.687Z,2.83
2019-02-07T10:15:48.197Z,3.53
2019-02-07T10:18:35.369Z,3.20
2019-02-07T10:21:33.055Z,3.13
2019-02-07T10:24:20.696Z,3.17
2019-02-07T10:27:14.691Z,3.47
2019-02-07T10:29:59.703Z,3.73
2019-02-07T10:32:47.138Z,3.00
2019-02-07T10:35:34.633Z,3.13
2019-02-07T10:38:22.889Z,3.30
2019-02-07T10:41:14.686Z,3.93
2019-02-07T10:44:02.254Z,2.73
2019-02-07T10:46:52.073Z,3.43
2019-02-07T10:49:37.939Z,3.30
2019-02-07T10:52:32.443Z,3.07
2019-02-07T10:55:29.966Z,3.40
2019-02-07T10:58:37.205Z,2.93
2019-02-07T11:01:29.358Z,3.33
2019-02-07T11:04:36.330Z,3.13
2019-02-07T11:07:37.030Z,2.90
2019-02-07T11:10:43.231Z,3.30
2019-02-07T11:17:07.310Z,3.10
2019-02-07T11:20:02.288Z,2.77
2019-02-07T11:23:03.194Z,2.13
2019-02-07T11:25:55.188Z,3.10
2019-02-07T11:28:52.856Z,2.80
2019-02-07T11:31:41.866Z,2.80
2019-02-07T11:34:48.885Z,2.90
2019-02-07T11:37:43.781Z,2.83
2019-02-07T11:40:48.728Z,3.20
2019-02-07T11:43:55.714Z,2.60
2019-02-07T11:46:43.258Z,2.70
2019-02-07T11:49:34.928Z,2.70
2019-02-07T11:52:30.012Z,3.10
2019-02-07T11:55:27.800Z,3.23
2019-02-07T11:58:08.752Z,3.13
2019-02-07T12:01:12.989Z,2.77
2019-02-07T12:04:14.469Z,3.50
2019-02-07T12:07:09.284Z,4.33
2019-02-07T12:09:58.802Z,2.70
2019-02-07T12:12:43.228Z,2.93
2019-02-07T12:15:31.117Z,3.43
2019-02-07T12:18:22.409Z,3.17
2019-02-07T12:21:14.246Z,2.93
2019-02-07T12:24:06.123Z,2.50
2019-02-07T12:26:57.936Z,3.60
2019-02-07T12:29:52.779Z,2.97
2019-02-07T12:32:53.981Z,4.20
2019-02-07T12:35:35.381Z,2.13
2019-02-07T12:38:24.395Z,4.13
2019-02-07T12:41:11.407Z,3.43
2019-02-07T12:44:00.375Z,3.27
2019-02-07T12:46:47.667Z,2.80
2019-02-07T12:49:42.685Z,2.60
2019-02-07T12:52:27.630Z,2.97
2019-02-07T12:55:15.293Z,3.10
2019-02-07T12:58:16.241Z,2.43
2019-02-07T13:01:08.307Z,2.40
2019-02-07T13:03:55.651Z,2.33
2019-02-07T13:06:56.617Z,2.50
2019-02-07T13:09:48.003Z,2.83
2019-02-07T13:12:35.615Z,2.30
2019-02-07T13:15:26.685Z,3.03
2019-02-07T13:18:18.508Z,2.60
2019-02-07T13:21:15.857Z,2.27
2019-02-07T13:24:03.373Z,2.93
2019-02-07T13:26:55.225Z,3.47
2019-02-07T13:29:44.285Z,2.47
2019-02-07T13:32:23.713Z,2.70
2019-02-07T13:35:11.382Z,3.10
2019-02-07T13:38:12.536Z,2.10
2019-02-07T13:40:59.960Z,2.67
2019-02-07T13:43:47.398Z,1.90
2019-02-07T13:46:36.122Z,2.40
2019-02-07T13:49:37.074Z,2.40
2019-02-07T13:52:25.418Z,2.20
2019-02-07T13:55:09.588Z,2.60
2019-02-07T13:57:56.990Z,3.80
2019-02-07T14:00:49.044Z,2.80
2019-02-07T14:03:36.611Z,2.43
2019-02-07T14:06:24.062Z,2.23
2019-02-07T14:09:19.256Z,2.67
2019-02-07T14:12:02.142Z,2.43
2019-02-07T14:14:49.970Z,3.40
2019-02-07T14:17:44.676Z,3.60
2019-02-07T14:20:32.100Z,2.30
2019-02-07T14:23:19.542Z,2.57
2019-02-07T14:32:34.913Z,1.90
2019-02-07T14:35:16.562Z,2.37
2019-02-07T14:38:05.599Z,2.67
2019-02-07T14:40:50.851Z,1.93
2019-02-07T14:43:40.000Z,2.13
2019-02-07T14:46:18.867Z,2.33
2019-02-07T14:48:51.242Z,1.70
2019-02-07T14:51:21.360Z,2.37
2019-02-07T14:53:51.400Z,2.27
2019-02-07T14:56:21.444Z,2.33
2019-02-07T14:58:51.754Z,2.37
2019-02-07T15:01:21.631Z,1.90
2019-02-07T15:03:51.724Z,2.40
2019-02-07T15:06:22.094Z,1.80
2019-02-07T15:08:51.955Z,2.27
2019-02-07T15:11:21.839Z,2.70
2019-02-07T15:13:51.601Z,2.70
2019-02-07T15:16:21.449Z,2.50
2019-02-07T15:18:51.435Z,2.47
2019-02-07T15:21:21.414Z,1.90
2019-02-07T15:23:51.265Z,2.53
2019-02-07T15:33:01.914Z,2.80
2019-02-07T15:35:36.974Z,1.97
2019-02-07T15:38:07.075Z,1.60
2019-02-07T15:40:38.672Z,2.40
2019-02-07T15:43:08.937Z,2.10
2019-02-07T15:45:38.921Z,1.70
2019-02-07T15:48:09.083Z,1.77
2019-02-07T15:50:39.607Z,1.60
2019-02-07T15:53:11.075Z,2.03
2019-02-07T15:55:40.906Z,2.17
2019-02-07T16:02:01.263Z,2.07
2019-02-07T16:04:35.115Z,2.23
2019-02-07T16:07:05.148Z,2.63
2019-02-07T16:09:35.156Z,2.47
2019-02-07T16:12:05.539Z,2.47
2019-02-07T16:14:36.963Z,3.50
2019-02-07T16:17:06.787Z,2.90
2019-02-07T16:19:36.750Z,2.27
2019-02-07T16:22:06.895Z,3.20
2019-02-07T16:24:36.786Z,3.53
2019-02-07T16:30:51.587Z,2.53
2019-02-07T16:33:21.776Z,2.70
2019-02-07T16:35:51.754Z,3.00
2019-02-07T16:38:21.810Z,4.20
2019-02-07T16:40:53.078Z,3.73
2019-02-07T16:43:23.303Z,3.53
2019-02-07T16:45:53.332Z,2.73
2019-02-07T16:48:23.275Z,2.00
2019-02-07T16:50:59.865Z,1.90
2019-02-07T16:53:24.788Z,4.77
2019-02-07T16:55:54.680Z,2.63
2019-02-07T16:58:24.645Z,3.50
2019-02-07T17:00:54.628Z,2.37
2019-02-07T17:03:24.595Z,4.17
2019-02-07T17:05:54.498Z,2.40
2019-02-07T17:08:24.410Z,2.27
2019-02-07T17:10:54.625Z,2.27
2019-02-07T17:16:42.224Z,2.60
2019-02-07T17:19:12.074Z,2.50
2019-02-07T17:21:42.020Z,2.57
2019-02-07T17:24:12.089Z,2.97
2019-02-07T17:26:42.048Z,2.90
2019-02-07T17:29:11.919Z,2.73
2019-02-07T17:31:42.246Z,2.67
2019-02-07T17:34:12.324Z,2.30
2019-02-07T17:36:42.326Z,2.00
2019-02-07T17:39:12.376Z,1.90
2019-02-07T17:41:42.331Z,3.60
2019-02-07T17:44:12.117Z,3.20
2019-02-07T17:46:42.175Z,3.20
2019-02-07T17:49:12.404Z,2.10
2019-02-07T17:51:42.626Z,2.50
2019-02-07T17:54:18.746Z,2.17
2019-02-07T17:56:44.309Z,3.47
2019-02-07T17:59:14.287Z,3.10
2019-02-07T18:01:44.199Z,3.70
2019-02-07T18:04:14.153Z,3.03
2019-02-07T18:06:44.150Z,3.37
2019-02-07T18:09:14.084Z,3.00
2019-02-07T18:11:43.943Z,4.07
2019-02-07T18:14:23.385Z,3.73
2019-02-07T18:16:53.320Z,2.97
2019-02-07T18:19:23.313Z,3.03
2019-02-07T18:21:53.226Z,3.23
2019-02-07T18:24:22.969Z,2.43
2019-02-07T18:26:52.875Z,3.67
2019-02-07T18:29:22.894Z,2.63
2019-02-07T18:31:52.837Z,2.37
2019-02-07T18:34:22.724Z,2.97
2019-02-07T18:36:52.627Z,2.80
2019-02-07T18:39:22.731Z,2.33
2019-02-07T18:41:52.871Z,2.17
2019-02-07T18:44:22.999Z,2.53
2019-02-07T18:46:53.025Z,2.47
2019-02-07T18:49:22.920Z,2.83
2019-02-07T18:51:52.946Z,2.60
2019-02-07T18:54:22.957Z,2.33
2019-02-07T18:56:53.066Z,2.80
2019-02-07T18:59:23.062Z,2.93
2019-02-07T19:01:53.159Z,2.20
2019-02-07T19:04:23.002Z,2.07
2019-02-07T19:06:52.884Z,2.80
2019-02-07T19:09:22.859Z,2.50
2019-02-07T19:11:53.032Z,2.83
2019-02-07T19:14:23.475Z,2.67
2019-02-07T19:16:53.484Z,2.07
2019-02-07T19:19:23.728Z,2.90
2019-02-07T19:21:57.154Z,4.53
2019-02-07T19:24:25.203Z,2.47
2019-02-07T19:26:55.225Z,3.00
2019-02-07T19:29:25.087Z,2.57
2019-02-07T19:31:54.964Z,2.40
2019-02-07T19:34:24.957Z,3.17
2019-02-07T19:36:54.932Z,3.03
2019-02-07T19:39:25.002Z,2.97
2019-02-07T19:41:55.218Z,2.70
2019-02-07T19:44:25.170Z,3.87
2019-02-07T19:46:55.208Z,3.57
2019-02-07T19:49:25.096Z,2.53
2019-02-07T19:51:55.538Z,3.10
2019-02-07T19:54:25.637Z,2.37
2019-02-07T19:56:55.632Z,2.70
2019-02-07T19:59:25.388Z,2.77
2019-02-07T20:01:55.271Z,2.60
2019-02-07T20:04:25.652Z,4.60
2019-02-07T20:06:55.510Z,2.97
2019-02-07T20:09:25.714Z,2.63
2019-02-07T20:11:55.746Z,3.27
2019-02-07T20:14:25.807Z,2.20
2019-02-07T20:16:55.889Z,2.80
2019-02-07T20:19:25.985Z,2.63
2019-02-07T20:21:55.920Z,3.20
2019-02-07T20:24:25.870Z,3.40
2019-02-07T20:26:55.917Z,4.67
2019-02-07T20:29:26.332Z,3.73
2019-02-07T20:31:56.345Z,3.30
2019-02-07T20:34:26.376Z,3.07
2019-02-07T20:36:56.330Z,2.47
2019-02-07T20:39:27.154Z,4.70
2019-02-07T20:41:57.204Z,3.97
2019-02-07T20:44:27.122Z,2.93
2019-02-07T20:46:57.475Z,5.17
2019-02-07T20:49:27.749Z,4.57
2019-02-07T20:51:57.799Z,2.70
2019-02-07T20:54:28.261Z,2.80
2019-02-07T20:56:58.218Z,3.17
2019-02-07T20:59:28.261Z,3.53
2019-02-07T21:01:58.367Z,3.80
2019-02-07T21:04:28.325Z,2.73
2019-02-07T21:06:58.426Z,4.07
2019-02-07T21:09:28.362Z,3.37
2019-02-07T21:11:58.327Z,2.90
2019-02-07T21:18:00.744Z,3.77
2019-02-07T21:20:30.701Z,3.20
2019-02-07T21:23:01.152Z,4.43
2019-02-07T21:25:46.027Z,2.47
2019-02-07T21:28:15.925Z,3.80
2019-02-07T21:30:45.991Z,3.83
2019-02-07T21:33:18.116Z,7.00
2019-02-07T21:35:48.086Z,3.77
2019-02-07T21:38:18.151Z,2.83
2019-02-07T21:40:48.109Z,3.43
2019-02-07T21:43:18.143Z,3.50
2019-02-07T21:45:48.144Z,3.30
2019-02-07T21:48:18.166Z,3.50
2019-02-07T21:50:48.064Z,2.93
2019-02-07T21:53:18.067Z,3.47
2019-02-07T21:55:48.050Z,3.80
2019-02-07T22:05:32.248Z,3.60
2019-02-07T22:08:02.194Z,3.33
2019-02-07T22:10:32.284Z,3.63
2019-02-07T22:13:02.137Z,3.80
2019-02-07T22:15:32.250Z,3.40
2019-02-07T22:18:02.227Z,4.07
2019-02-07T22:20:32.394Z,3.73
2019-02-07T22:23:02.346Z,4.47
2019-02-07T22:25:32.319Z,3.83
2019-02-07T22:31:50.020Z,4.27
2019-02-07T22:34:20.014Z,4.53
2019-02-07T22:36:50.380Z,5.13
2019-02-07T22:39:20.412Z,5.17
2019-02-07T22:41:50.560Z,5.23
2019-02-07T22:44:20.441Z,5.27
2019-02-07T22:46:50.602Z,5.83
2019-02-07T22:49:20.649Z,6.23
2019-02-07T22:51:50.662Z,6.17
2019-02-07T22:54:20.868Z,6.23
2019-02-07T22:56:50.858Z,5.27
2019-02-07T23:06:25.605Z,4.60
2019-02-07T23:08:55.686Z,4.50
2019-02-07T23:11:25.607Z,5.30
2019-02-07T23:13:56.024Z,4.60
2019-02-07T23:16:26.271Z,3.97
2019-02-07T23:18:56.284Z,5.10
2019-02-07T23:21:26.293Z,5.17
2019-02-07T23:23:56.689Z,4.63
2019-02-07T23:26:26.503Z,4.97
2019-02-07T23:28:56.723Z,4.47
2019-02-07T23:31:27.369Z,4.60
2019-02-07T23:33:57.293Z,4.00
2019-02-07T23:36:27.394Z,4.53
2019-02-07T23:38:57.245Z,4.67
2019-02-07T23:41:27.413Z,4.80
2019-02-07T23:43:57.466Z,4.47
2019-02-07T23:46:27.545Z,4.70
2019-02-07T23:48:57.520Z,5.40
2019-02-07T23:51:27.690Z,4.20
2019-02-07T23:53:57.923Z,4.00
2019-02-07T23:56:27.920Z,4.73
2019-02-07T23:58:57.942Z,4.63
